PWSweather.com
Personal Weather Stations
Station Observations
CHEVALR
Cheval Rigon, Ferrieres Sur SichonFR

Cheval RigonFerrieres Sur SichonFR

Lat: 46.02966, Lon: 3.61771

Elevation: 1923

Station Type: Davis Vantage Pro2

Latest ConditionsUpdated 5:00:00 AM GMT+01:01 Wednesday, Aug 21, 2019
Currently Today's Max Today's Min Today's Average
Temperature 51.0°F10.6°C 53.9°F12.2°C 50.5°F10.3°C 52.2°F11.2°C
Dew Point 46.0°F7.8°C 48.4°F9.1°C 44.9°F7.2°C 46.6°F8.1°C
Winds Calm Calm Calm -Calm - - Calm Calm
Wind Gusts -- 2.0 mph3.2 kmh - -
Humidity 83% 83% 78% 81%
Pressure 30.27 in1025.1 mb 30.29 in1025.7 mb 30.27 in1025.1 mb -
Hour Temp Dew Point Humidity Winds Wind Gusts Pressure Precip Precip Rate Daily Precip Total
05:00 AM 51.0°F10.6°C 46.0°F7.8°C 83% Calm Calm -- 30.27 in1025.1 mb 0.00 in0.0 mm 0.00 in0.0 mm 0.00 in0.0 mm
04:45 AM 50.5°F10.3°C 45.5°F7.5°C 83% Calm Calm -- 30.27 in1025.1 mb 0.00 in0.0 mm 0.00 in0.0 mm 0.00 in0.0 mm
04:29 AM 50.5°F10.3°C 44.9°F7.2°C 81% Calm Calm -- 30.28 in1025.4 mb 0.00 in0.0 mm 0.00 in0.0 mm 0.00 in0.0 mm
04:14 AM 50.6°F10.3°C 45.0°F7.2°C 81% Calm Calm -- 30.28 in1025.4 mb 0.00 in0.0 mm 0.00 in0.0 mm 0.00 in0.0 mm
04:00 AM 50.8°F10.4°C 44.9°F7.2°C 80% Calm Calm -- 30.28 in1025.4 mb 0.00 in0.0 mm 0.00 in0.0 mm 0.00 in0.0 mm
03:44 AM 51.0°F10.6°C 45.1°F7.3°C 80% Calm Calm -- 30.27 in1025.1 mb 0.00 in0.0 mm 0.00 in0.0 mm 0.00 in0.0 mm
03:30 AM 51.8°F11.0°C 45.5°F7.5°C 79% Calm Calm -- 30.28 in1025.4 mb 0.00 in0.0 mm 0.00 in0.0 mm 0.00 in0.0 mm
03:15 AM 52.5°F11.4°C 45.9°F7.7°C 78% Calm Calm -- 30.28 in1025.4 mb 0.00 in0.0 mm 0.00 in0.0 mm 0.00 in0.0 mm
03:00 AM 52.3°F11.3°C 46.3°F7.9°C 80% Calm Calm -- 30.27 in1025.1 mb 0.00 in0.0 mm 0.00 in0.0 mm 0.00 in0.0 mm
02:44 AM 52.7°F11.5°C 46.7°F8.2°C 80% Calm Calm -- 30.27 in1025.1 mb 0.00 in0.0 mm 0.00 in0.0 mm 0.00 in0.0 mm
02:30 AM 53.0°F11.7°C 47.0°F8.3°C 80% Calm Calm -- 30.28 in1025.4 mb 0.00 in0.0 mm 0.00 in0.0 mm 0.00 in0.0 mm
02:15 AM 52.5°F11.4°C 47.2°F8.4°C 82% Calm Calm -- 30.28 in1025.4 mb 0.00 in0.0 mm 0.00 in0.0 mm 0.00 in0.0 mm
01:59 AM 51.8°F11.0°C 46.5°F8.1°C 82% Calm Calm -- 30.28 in1025.4 mb 0.00 in0.0 mm 0.00 in0.0 mm 0.00 in0.0 mm
01:45 AM 52.1°F11.2°C 46.8°F8.2°C 82% Calm Calm -- 30.28 in1025.4 mb 0.00 in0.0 mm 0.00 in0.0 mm 0.00 in0.0 mm
01:29 AM 52.6°F11.4°C 46.9°F8.3°C 81% Calm Calm -- 30.28 in1025.4 mb 0.00 in0.0 mm 0.00 in0.0 mm 0.00 in0.0 mm
01:14 AM 53.1°F11.7°C 47.4°F8.6°C 81% Calm Calm -- 30.28 in1025.4 mb 0.00 in0.0 mm 0.00 in0.0 mm 0.00 in0.0 mm
01:00 AM 53.3°F11.8°C 48.0°F8.9°C 82% Calm Calm 2.0 mph3.2 kmh 30.28 in1025.4 mb 0.00 in0.0 mm 0.00 in0.0 mm 0.00 in0.0 mm
12:44 AM 53.7°F12.1°C 48.0°F8.9°C 81% Calm Calm 1.0 mph1.6 kmh 30.28 in1025.4 mb 0.00 in0.0 mm 0.00 in0.0 mm 0.00 in0.0 mm
12:30 AM 53.9°F12.2°C 48.2°F9.0°C 81% Calm Calm 2.0 mph3.2 kmh 30.28 in1025.4 mb 0.00 in0.0 mm 0.00 in0.0 mm 0.00 in0.0 mm
12:15 AM 53.8°F12.1°C 48.4°F9.1°C 82% Calm Calm 1.0 mph1.6 kmh 30.28 in1025.4 mb 0.00 in0.0 mm 0.00 in0.0 mm 0.00 in0.0 mm
12:00 AM 53.7°F12.1°C 48.3°F9.1°C 82% Calm Calm 1.0 mph1.6 kmh 30.29 in1025.7 mb 0.00 in0.0 mm 0.00 in0.0 mm 0.00 in0.0 mm